createdAt,value
2024-03-10T00:00:11.476Z,21.1
2024-03-10T00:01:21.739Z,21.5
2024-03-10T00:02:26.784Z,20.9
2024-03-10T00:03:31.572Z,21.7
2024-03-10T00:04:36.557Z,21.3
2024-03-10T00:05:41.516Z,21.7
2024-03-10T00:06:46.399Z,20.5
2024-03-10T00:07:51.465Z,21.6
2024-03-10T00:08:59.000Z,21.4
2024-03-10T00:10:04.081Z,21.9
2024-03-10T00:11:09.120Z,21.5
2024-03-10T00:12:16.709Z,21.4
2024-03-10T00:13:21.585Z,21.7
2024-03-10T00:14:26.314Z,21
2024-03-10T00:15:31.131Z,21.8
2024-03-10T00:16:35.820Z,21.8
2024-03-10T00:17:40.602Z,22.3
2024-03-10T00:18:45.320Z,21.2
2024-03-10T00:19:50.011Z,21.8
2024-03-10T00:20:54.891Z,20.3
2024-03-10T00:21:59.660Z,20.5
2024-03-10T00:23:04.402Z,21.4
2024-03-10T00:24:09.154Z,20.1
2024-03-10T00:25:13.866Z,20.1
2024-03-10T00:26:18.686Z,21.5
2024-03-10T00:27:23.338Z,20
2024-03-10T00:28:28.213Z,21
2024-03-10T00:29:32.946Z,20.7
2024-03-10T00:30:37.651Z,21
2024-03-10T00:31:42.395Z,19.2
2024-03-10T00:32:47.149Z,20.1
2024-03-10T00:33:51.837Z,20.2
2024-03-10T00:34:56.635Z,20.5
2024-03-10T00:36:01.521Z,18.8
2024-03-10T00:37:06.323Z,20.8
2024-03-10T00:38:11.112Z,20.9
2024-03-10T00:39:15.851Z,20.8
2024-03-10T00:40:20.691Z,20.4
2024-03-10T00:41:25.364Z,20.8
2024-03-10T00:42:30.093Z,20.9
2024-03-10T00:43:34.954Z,21.3
2024-03-10T00:44:39.689Z,21.6
2024-03-10T00:45:44.415Z,20.8
2024-03-10T00:46:49.228Z,20.3
2024-03-10T00:47:54.152Z,19.9
2024-03-10T00:48:58.812Z,19.3
2024-03-10T00:50:03.542Z,19.6
2024-03-10T00:51:11.237Z,19.8
2024-03-10T00:52:15.955Z,18.9
2024-03-10T00:53:20.948Z,19.9
2024-03-10T00:54:25.632Z,19.8
2024-03-10T00:55:30.356Z,20
2024-03-10T00:56:35.069Z,19.3
2024-03-10T00:57:39.884Z,20
2024-03-10T00:58:44.696Z,19.7
2024-03-10T00:59:49.342Z,19.7
2024-03-10T01:00:54.041Z,19
2024-03-10T01:01:58.801Z,19.7
2024-03-10T01:03:03.626Z,20.1
2024-03-10T01:04:08.379Z,19.5
2024-03-10T01:05:13.234Z,19.9
2024-03-10T01:06:18.010Z,20.7
2024-03-10T01:07:22.762Z,20.9
2024-03-10T01:08:27.551Z,20.8
2024-03-10T01:09:32.225Z,20.2
2024-03-10T01:10:39.455Z,21.7
2024-03-10T01:11:44.477Z,20.1
2024-03-10T01:12:52.179Z,21.4
2024-03-10T01:13:57.050Z,21.1
2024-03-10T01:15:01.670Z,21.8
2024-03-10T01:16:06.540Z,23
2024-03-10T01:17:11.313Z,20.9
2024-03-10T01:18:16.091Z,21.9
2024-03-10T01:19:20.750Z,22.5
2024-03-10T01:20:25.505Z,21.7
2024-03-10T01:21:30.226Z,23.1
2024-03-10T01:22:35.052Z,22.5
2024-03-10T01:23:39.763Z,23.7
2024-03-10T01:24:47.320Z,23.9
2024-03-10T01:25:52.079Z,22.8
2024-03-10T01:26:56.884Z,23.9
2024-03-10T01:28:01.631Z,23.9
2024-03-10T01:29:06.613Z,23.5
2024-03-10T01:30:11.180Z,22.7
2024-03-10T01:31:16.012Z,23.3
2024-03-10T01:32:20.830Z,23.8
2024-03-10T01:33:25.555Z,23.6
2024-03-10T01:34:30.289Z,22.8
2024-03-10T01:35:35.178Z,23.7
2024-03-10T01:36:39.848Z,23.6
2024-03-10T01:37:44.751Z,23.6
2024-03-10T01:38:49.423Z,23.7
2024-03-10T01:39:54.205Z,23.4
2024-03-10T01:40:59.129Z,22.9
2024-03-10T01:42:03.832Z,22
2024-03-10T01:43:08.529Z,21.9
2024-03-10T01:44:16.324Z,22.2
2024-03-10T01:45:21.004Z,23.1
2024-03-10T01:46:25.739Z,21.2
2024-03-10T01:47:30.537Z,21.6
2024-03-10T01:48:35.201Z,21.1
2024-03-10T01:49:39.902Z,21
2024-03-10T01:50:44.605Z,21.5
2024-03-10T01:51:49.466Z,20.6
2024-03-10T01:52:54.233Z,19.9
2024-03-10T01:53:58.926Z,20
2024-03-10T01:55:03.748Z,19.3
2024-03-10T01:56:08.865Z,19.7
2024-03-10T01:57:16.492Z,20.1
2024-03-10T01:58:21.460Z,20
2024-03-10T01:59:26.284Z,19.7
2024-03-10T02:00:33.714Z,21.1
2024-03-10T02:01:38.574Z,19.7
2024-03-10T02:02:43.386Z,19.8
2024-03-10T02:03:50.929Z,20.2
2024-03-10T02:04:55.772Z,20.1
2024-03-10T02:06:00.716Z,19.9
2024-03-10T02:07:05.559Z,19.6
2024-03-10T02:08:10.449Z,19.6
2024-03-10T02:09:15.177Z,20.6
2024-03-10T02:10:22.613Z,19.5
2024-03-10T02:11:27.443Z,19.9
2024-03-10T02:12:34.942Z,18.7
2024-03-10T02:13:39.675Z,20
2024-03-10T02:14:47.120Z,19.4
2024-03-10T02:15:59.665Z,20.8
2024-03-10T02:17:07.233Z,20
2024-03-10T02:18:11.953Z,20.6
2024-03-10T02:19:16.898Z,19.1
2024-03-10T02:20:21.961Z,20
2024-03-10T02:21:26.385Z,20.6
2024-03-10T02:22:31.280Z,20
2024-03-10T02:23:36.012Z,20
2024-03-10T02:24:48.912Z,19.4
2024-03-10T02:25:53.760Z,20.4
2024-03-10T02:26:58.482Z,19
2024-03-10T02:28:03.246Z,19.5
2024-03-10T02:29:10.634Z,18.6
2024-03-10T02:30:20.340Z,19.8
2024-03-10T02:31:32.573Z,18.9
2024-03-10T02:32:42.285Z,17.3
2024-03-10T02:33:51.922Z,17.9
2024-03-10T02:35:01.639Z,17.9
2024-03-10T02:36:11.592Z,17.7
2024-03-10T02:37:21.288Z,17.5
2024-03-10T02:38:30.951Z,16.8
2024-03-10T02:39:40.555Z,16.6
2024-03-10T02:40:50.223Z,16.3
2024-03-10T02:41:59.813Z,16.2
2024-03-10T02:43:15.022Z,16.2
2024-03-10T02:44:24.854Z,15.6
2024-03-10T02:45:34.624Z,15.9
2024-03-10T02:46:44.412Z,16.2
2024-03-10T02:47:54.216Z,16.8
2024-03-10T02:48:58.981Z,16.4
2024-03-10T02:50:03.759Z,16.9
2024-03-10T02:51:08.709Z,17
2024-03-10T02:52:13.456Z,16.8
2024-03-10T02:53:18.230Z,17.4
2024-03-10T02:54:23.142Z,16.6
2024-03-10T02:55:27.822Z,16.9
2024-03-10T02:56:32.721Z,17.1
2024-03-10T02:57:37.380Z,16.3
2024-03-10T02:58:42.236Z,16.2
2024-03-10T02:59:47.105Z,16
2024-03-10T03:00:51.890Z,16
2024-03-10T03:01:56.604Z,16.8
2024-03-10T03:03:01.501Z,16.9
2024-03-10T03:04:06.349Z,17.1
2024-03-10T03:05:11.262Z,16.7
2024-03-10T03:06:16.483Z,16.2
2024-03-10T03:07:21.333Z,16
2024-03-10T03:08:26.307Z,16.7
2024-03-10T03:09:31.021Z,15.9
2024-03-10T03:10:35.809Z,15.9
2024-03-10T03:11:40.533Z,15.7
2024-03-10T03:12:45.340Z,16.5
2024-03-10T03:13:50.169Z,16.1
2024-03-10T03:14:54.834Z,16.1
2024-03-10T03:16:02.676Z,16.3
2024-03-10T03:17:07.533Z,16.4
2024-03-10T03:18:12.428Z,15.7
2024-03-10T03:19:17.153Z,16.3
2024-03-10T03:20:21.921Z,14.9
2024-03-10T03:21:26.670Z,15.7
2024-03-10T03:22:31.454Z,14.3
2024-03-10T03:23:38.983Z,15
2024-03-10T03:24:46.611Z,15.3
2024-03-10T03:25:51.404Z,15.3
2024-03-10T03:26:56.129Z,15
2024-03-10T03:28:00.867Z,14.6
2024-03-10T03:29:05.743Z,15.1
2024-03-10T03:30:10.420Z,14.8
2024-03-10T03:31:15.217Z,15.4
2024-03-10T03:32:19.895Z,14.2
2024-03-10T03:33:24.788Z,15
2024-03-10T03:34:29.476Z,15.6
2024-03-10T03:35:34.300Z,15.1
2024-03-10T03:36:39.116Z,15.4
2024-03-10T03:37:43.861Z,15.7
2024-03-10T03:38:48.578Z,15.1
2024-03-10T03:39:53.328Z,14.9
2024-03-10T03:40:58.193Z,16.4
2024-03-10T03:42:02.997Z,15.6
2024-03-10T03:43:07.737Z,14.5
2024-03-10T03:44:12.498Z,15.7
2024-03-10T03:45:20.171Z,15.8
2024-03-10T03:46:24.995Z,16.4
2024-03-10T03:47:29.684Z,15.3
2024-03-10T03:48:34.392Z,15.2
2024-03-10T03:49:39.158Z,16
2024-03-10T03:50:43.912Z,15.7
2024-03-10T03:51:48.920Z,15.8
2024-03-10T03:52:53.737Z,14.9
2024-03-10T03:53:58.367Z,15.8
2024-03-10T03:55:03.171Z,16
2024-03-10T03:56:08.046Z,16.5
2024-03-10T03:57:15.374Z,15.4
2024-03-10T03:58:20.125Z,15.5
2024-03-10T03:59:24.971Z,16.8
2024-03-10T04:00:29.555Z,15.7
2024-03-10T04:01:34.579Z,15.7
2024-03-10T04:02:39.292Z,16.4
2024-03-10T04:03:44.002Z,16.1
2024-03-10T04:04:49.154Z,16
2024-03-10T04:05:54.119Z,15.7
2024-03-10T04:06:59.062Z,16
2024-03-10T04:08:04.269Z,16.2
2024-03-10T04:09:09.367Z,15.7
2024-03-10T04:10:15.257Z,15.7
2024-03-10T04:11:18.286Z,15.7
2024-03-10T04:12:21.381Z,15.7
2024-03-10T04:13:24.209Z,15.7
2024-03-10T04:14:27.261Z,15.7
2024-03-10T04:15:30.135Z,15.7
2024-03-10T04:17:02.110Z,15.7
2024-03-10T04:18:17.063Z,15.7
2024-03-10T04:19:22.394Z,15.7
2024-03-10T04:20:25.433Z,15.7
2024-03-10T04:21:28.286Z,15.7
2024-03-10T04:22:45.701Z,15.7
2024-03-10T04:23:50.747Z,15.7
2024-03-10T04:24:53.718Z,15.7
2024-03-10T04:25:58.467Z,15.7
2024-03-10T04:27:03.255Z,15.4
2024-03-10T04:28:07.969Z,16.4
2024-03-10T04:29:12.967Z,17.3
2024-03-10T04:30:17.399Z,16.6
2024-03-10T04:31:22.308Z,17.3
2024-03-10T04:32:27.209Z,15.4
2024-03-10T04:33:31.749Z,16.6
2024-03-10T04:34:36.446Z,16.6
2024-03-10T04:35:41.250Z,16.7
2024-03-10T04:36:45.925Z,16.9
2024-03-10T04:37:50.713Z,17.4
2024-03-10T04:38:55.398Z,16.8
2024-03-10T04:40:00.182Z,17.5
2024-03-10T04:41:07.550Z,16.5
2024-03-10T04:42:12.265Z,17.1
2024-03-10T04:43:19.090Z,17
2024-03-10T04:44:21.756Z,15.6
2024-03-10T04:45:26.560Z,17.1
2024-03-10T04:46:31.373Z,17.4
2024-03-10T04:47:36.187Z,16.6
2024-03-10T04:48:40.725Z,17.2
2024-03-10T04:49:45.509Z,17.5
2024-03-10T04:50:50.213Z,16.8
2024-03-10T04:51:54.970Z,16.2
2024-03-10T04:52:59.813Z,17.1
2024-03-10T04:54:04.535Z,16.7
2024-03-10T04:55:09.218Z,17.4
2024-03-10T04:56:14.292Z,16.6
2024-03-10T04:57:18.922Z,17.3
2024-03-10T04:58:23.642Z,16.9
2024-03-10T04:59:31.160Z,16.8
2024-03-10T05:00:37.043Z,16.3
2024-03-10T05:01:40.478Z,17
2024-03-10T05:02:45.305Z,16.8
2024-03-10T05:03:49.967Z,15.7
2024-03-10T05:04:54.731Z,16.6
2024-03-10T05:05:59.568Z,16.7
2024-03-10T05:07:04.371Z,16.6
2024-03-10T05:08:09.132Z,16.6
2024-03-10T05:09:13.769Z,15.7
2024-03-10T05:10:18.550Z,17
2024-03-10T05:11:26.299Z,16.3
2024-03-10T05:12:30.995Z,16.2
2024-03-10T05:13:35.702Z,16.1
2024-03-10T05:14:40.458Z,17.3
2024-03-10T05:15:45.295Z,16.2
2024-03-10T05:16:50.075Z,15.2
2024-03-10T05:17:54.874Z,16.1
2024-03-10T05:19:02.290Z,16.2
2024-03-10T05:20:07.044Z,15.1
2024-03-10T05:21:11.872Z,15.8
2024-03-10T05:22:16.765Z,16.1
2024-03-10T05:23:21.567Z,15
2024-03-10T05:24:26.319Z,14.8
2024-03-10T05:25:33.951Z,15.3
2024-03-10T05:26:38.799Z,16.2
2024-03-10T05:27:43.553Z,15.2
2024-03-10T05:28:48.380Z,14.5
2024-03-10T05:29:53.151Z,15.5
2024-03-10T05:30:57.915Z,15.5
2024-03-10T05:32:02.756Z,14.5
2024-03-10T05:33:07.709Z,15.7
2024-03-10T05:34:12.361Z,13.6
2024-03-10T05:35:20.378Z,14.8
2024-03-10T05:36:25.214Z,14.7
2024-03-10T05:37:30.114Z,14.9
2024-03-10T05:38:37.785Z,14.3
2024-03-10T05:39:42.691Z,14.9
2024-03-10T05:40:47.615Z,14.4
2024-03-10T05:41:52.482Z,14.2
2024-03-10T05:42:57.531Z,14.9
2024-03-10T05:44:02.419Z,14.8
2024-03-10T05:45:07.413Z,13.7
2024-03-10T05:46:12.592Z,14.8
2024-03-10T05:47:17.473Z,15.5
2024-03-10T05:48:22.475Z,14.7
2024-03-10T05:49:27.223Z,14.5
2024-03-10T05:50:32.121Z,14.9
2024-03-10T05:51:37.031Z,14.9
2024-03-10T05:52:41.960Z,15.4
2024-03-10T05:53:46.930Z,14.2
2024-03-10T05:54:51.777Z,15.2
2024-03-10T05:55:56.646Z,14.8
2024-03-10T05:57:01.596Z,14.5
2024-03-10T05:58:06.596Z,14.7
2024-03-10T05:59:11.559Z,14.2
2024-03-10T06:00:16.690Z,15.1
2024-03-10T06:01:21.569Z,14.1
2024-03-10T06:02:26.530Z,14.8
2024-03-10T06:03:31.369Z,15
2024-03-10T06:04:36.304Z,14.8
2024-03-10T06:05:44.229Z,14.6
2024-03-10T06:06:49.114Z,15.2
2024-03-10T06:07:54.104Z,14.6
2024-03-10T06:08:58.962Z,14.9
2024-03-10T06:10:03.850Z,15.2
2024-03-10T06:11:08.810Z,14.7
2024-03-10T06:12:13.612Z,14.7
2024-03-10T06:13:18.348Z,15
2024-03-10T06:14:23.165Z,13.8
2024-03-10T06:15:27.953Z,14.6
2024-03-10T06:16:32.700Z,14.3
2024-03-10T06:17:37.683Z,14
2024-03-10T06:18:42.405Z,14.3
2024-03-10T06:19:52.031Z,14.3
2024-03-10T06:21:01.675Z,14.3
2024-03-10T06:22:11.270Z,14.2
2024-03-10T06:23:21.040Z,14
2024-03-10T06:24:30.757Z,12.6
2024-03-10T06:25:40.487Z,14
2024-03-10T06:26:46.004Z,13.1
2024-03-10T06:27:49.996Z,14
2024-03-10T06:28:55.031Z,13.9
2024-03-10T06:29:59.769Z,13.2
2024-03-10T06:31:04.508Z,13.6
2024-03-10T06:32:09.325Z,13.9
2024-03-10T06:33:14.109Z,14.1
2024-03-10T06:34:21.912Z,14
2024-03-10T06:35:23.718Z,13.9
2024-03-10T06:36:28.464Z,13.3
2024-03-10T06:37:33.303Z,13.8
2024-03-10T06:38:38.140Z,14
2024-03-10T06:39:45.788Z,13.5
2024-03-10T06:40:50.539Z,13.5
2024-03-10T06:41:55.200Z,12.8
2024-03-10T06:43:00.143Z,13.3
2024-03-10T06:44:04.901Z,13.1
2024-03-10T06:45:09.613Z,12.6
2024-03-10T06:46:14.639Z,13.5
2024-03-10T06:47:19.371Z,12.3
2024-03-10T06:48:24.114Z,12.1
2024-03-10T06:49:28.965Z,11.8
2024-03-10T06:50:33.817Z,12.4
2024-03-10T06:51:38.510Z,12.4
2024-03-10T06:52:43.229Z,12.8
2024-03-10T06:53:48.105Z,11.7
2024-03-10T06:54:53.129Z,12.5
2024-03-10T06:55:58.082Z,12.1
2024-03-10T06:57:03.053Z,12.2
2024-03-10T06:58:08.333Z,12.9
2024-03-10T06:59:13.214Z,13.3
2024-03-10T07:00:18.078Z,13.2
2024-03-10T07:01:23.138Z,13.2
2024-03-10T07:02:28.127Z,14
2024-03-10T07:03:32.925Z,13.4
2024-03-10T07:04:38.213Z,12.7
2024-03-10T07:05:42.776Z,13.9
2024-03-10T07:06:47.658Z,13.6
2024-03-10T07:07:52.618Z,14.2
2024-03-10T07:08:57.557Z,14.1
2024-03-10T07:10:02.410Z,13.7
2024-03-10T07:11:07.610Z,14.7
2024-03-10T07:12:12.428Z,14.1
2024-03-10T07:13:17.179Z,14.9
2024-03-10T07:14:22.141Z,13.4
2024-03-10T07:15:27.072Z,14.4
2024-03-10T07:16:31.948Z,13.8
2024-03-10T07:17:37.091Z,14.6
2024-03-10T07:18:44.528Z,13.8
2024-03-10T07:19:49.517Z,14.3
2024-03-10T07:20:54.334Z,14.7
2024-03-10T07:21:59.180Z,14.1
2024-03-10T07:23:04.162Z,13.4
2024-03-10T07:24:09.175Z,13.5
2024-03-10T07:25:14.052Z,13.5
2024-03-10T07:26:19.063Z,12.7
2024-03-10T07:27:24.184Z,12.9
2024-03-10T07:28:31.907Z,11.8
2024-03-10T07:29:36.887Z,12.1
2024-03-10T07:30:44.914Z,13
2024-03-10T07:31:49.950Z,11.8
2024-03-10T07:32:54.871Z,11.9
2024-03-10T07:33:59.849Z,11.7
2024-03-10T07:35:04.887Z,10.8
2024-03-10T07:36:09.901Z,11.3
2024-03-10T07:37:14.752Z,10.2
2024-03-10T07:38:19.671Z,10.4
2024-03-10T07:39:24.706Z,10.1
2024-03-10T07:40:29.484Z,10.4
2024-03-10T07:41:34.548Z,10.1
2024-03-10T07:42:42.177Z,10
2024-03-10T07:43:47.117Z,9.2
2024-03-10T07:44:52.114Z,9.9
2024-03-10T07:45:57.052Z,10.5
2024-03-10T07:47:02.143Z,9.3
2024-03-10T07:48:07.464Z,9.7
2024-03-10T07:49:11.953Z,9.9
2024-03-10T07:50:16.985Z,10.1
2024-03-10T07:51:21.938Z,9.7
2024-03-10T07:52:26.944Z,10.1
2024-03-10T07:53:32.010Z,9.7
2024-03-10T07:54:36.794Z,9.3
2024-03-10T07:55:41.705Z,9.8
2024-03-10T07:56:46.745Z,9.6
2024-03-10T07:57:51.604Z,9.9
2024-03-10T07:58:56.628Z,9.8
2024-03-10T08:00:01.630Z,9.2
2024-03-10T08:01:06.666Z,9.5
2024-03-10T08:02:11.731Z,9.5
2024-03-10T08:03:16.651Z,9.4
2024-03-10T08:04:21.628Z,9.3
2024-03-10T08:05:26.685Z,9.8
2024-03-10T08:06:31.549Z,9.2
2024-03-10T08:07:36.472Z,9.3
2024-03-10T08:08:44.633Z,8.7
2024-03-10T08:09:52.615Z,9.3
2024-03-10T08:10:57.538Z,9.6
2024-03-10T08:12:02.498Z,9.3
2024-03-10T08:13:07.586Z,9.1
2024-03-10T08:14:12.527Z,9.2
2024-03-10T08:15:20.322Z,9.5
2024-03-10T08:16:25.115Z,9.7
2024-03-10T08:17:30.220Z,9.5
2024-03-10T08:18:35.039Z,8.9
2024-03-10T08:19:39.943Z,8.7
2024-03-10T08:20:44.971Z,9.6
2024-03-10T08:21:49.837Z,9
2024-03-10T08:22:54.796Z,8.9
2024-03-10T08:23:59.727Z,8.9
2024-03-10T08:25:04.617Z,8.5
2024-03-10T08:26:09.717Z,8.9
2024-03-10T08:27:14.567Z,8.2
2024-03-10T08:28:19.521Z,8.2
2024-03-10T08:29:24.496Z,7.7
2024-03-10T08:30:29.366Z,8.1
2024-03-10T08:31:34.413Z,8.5
2024-03-10T08:32:39.616Z,7.7
2024-03-10T08:33:46.914Z,7.4
2024-03-10T08:34:52.197Z,7.8
2024-03-10T08:35:57.243Z,7.8
2024-03-10T08:37:02.183Z,7.3
2024-03-10T08:38:07.233Z,7.4
2024-03-10T08:39:12.026Z,7.8
2024-03-10T08:40:16.948Z,7.4
2024-03-10T08:41:21.986Z,7.4
2024-03-10T08:42:26.897Z,6.9
2024-03-10T08:43:31.814Z,7.9
2024-03-10T08:44:36.800Z,7.2
2024-03-10T08:45:41.703Z,7.1
2024-03-10T08:46:46.621Z,7.7
2024-03-10T08:47:51.568Z,7.8
2024-03-10T08:48:56.476Z,6.7
2024-03-10T08:50:01.449Z,6.7
2024-03-10T08:51:06.496Z,7.7
2024-03-10T08:52:11.306Z,7.3
2024-03-10T08:53:16.189Z,7.8
2024-03-10T08:54:21.096Z,6.4
2024-03-10T08:55:25.981Z,6.4
2024-03-10T08:56:31.014Z,6.6
2024-03-10T08:57:36.061Z,7.2
2024-03-10T08:58:40.997Z,7.3
2024-03-10T08:59:48.814Z,6.6
2024-03-10T09:00:53.770Z,6.4
2024-03-10T09:01:58.644Z,6.1
2024-03-10T09:03:06.558Z,6.3
2024-03-10T09:04:11.458Z,6.9
2024-03-10T09:05:16.406Z,6.7
2024-03-10T09:06:21.335Z,6.7
2024-03-10T09:07:26.220Z,6.8
2024-03-10T09:08:32.139Z,6.9
2024-03-10T09:09:36.985Z,7.1
2024-03-10T09:10:48.831Z,7.5
2024-03-10T09:11:47.126Z,7.3
2024-03-10T09:12:54.491Z,7.1
2024-03-10T09:13:59.535Z,7.4
2024-03-10T09:15:05.832Z,7.3
2024-03-10T09:16:11.141Z,7.8
2024-03-10T09:17:18.041Z,7.6
2024-03-10T09:18:21.125Z,7.6
2024-03-10T09:19:26.080Z,7.1
2024-03-10T09:20:31.074Z,7.4
2024-03-10T09:21:36.120Z,7.3
2024-03-10T09:22:41.243Z,7.3
2024-03-10T09:23:46.199Z,7.3
2024-03-10T09:24:51.155Z,8
2024-03-10T09:25:56.359Z,7.6
2024-03-10T09:27:01.184Z,7.7
2024-03-10T09:28:06.089Z,7.7
2024-03-10T09:29:11.152Z,8.1
2024-03-10T09:30:15.900Z,7.9
2024-03-10T09:31:20.834Z,7.7
2024-03-10T09:32:25.830Z,7.8
2024-03-10T09:33:30.732Z,7.2
2024-03-10T09:34:35.678Z,7.8
2024-03-10T09:35:40.893Z,7.7
2024-03-10T09:36:45.921Z,7.4
2024-03-10T09:37:50.789Z,7.8
2024-03-10T09:38:55.730Z,7.1
2024-03-10T09:40:00.774Z,7.7
2024-03-10T09:41:05.808Z,7.7
2024-03-10T09:42:10.961Z,7.4
2024-03-10T09:43:15.841Z,7.6
2024-03-10T09:44:20.774Z,7.3
2024-03-10T09:45:25.928Z,7.7
2024-03-10T09:46:30.852Z,7.4
2024-03-10T09:47:35.818Z,7.4
2024-03-10T09:48:40.679Z,6.9
2024-03-10T09:49:48.621Z,7.3
2024-03-10T09:50:53.445Z,6.9
2024-03-10T09:51:58.681Z,7.2
2024-03-10T09:53:03.252Z,7.2
2024-03-10T09:54:08.149Z,7.2
2024-03-10T09:55:13.040Z,7.2
2024-03-10T09:56:18.010Z,7
2024-03-10T09:57:22.913Z,7.3
2024-03-10T09:58:33.718Z,7.4
2024-03-10T09:59:37.719Z,7.2
2024-03-10T10:00:45.530Z,7.2
2024-03-10T10:01:50.402Z,7.2
2024-03-10T10:02:55.265Z,7.2
2024-03-10T10:04:03.193Z,7.4
2024-03-10T10:05:08.125Z,7.2
2024-03-10T10:06:13.096Z,7.8
2024-03-10T10:07:18.029Z,7.2
2024-03-10T10:08:22.898Z,7.9
2024-03-10T10:09:27.805Z,6.8
2024-03-10T10:10:32.683Z,7.5
2024-03-10T10:11:37.639Z,7.5
2024-03-10T10:12:42.396Z,7.7
2024-03-10T10:13:47.289Z,7.5
2024-03-10T10:14:52.524Z,8
2024-03-10T10:15:57.508Z,8.1
2024-03-10T10:17:02.514Z,7.4
2024-03-10T10:18:07.480Z,8
2024-03-10T10:19:12.428Z,8.4
2024-03-10T10:20:17.465Z,7.9
2024-03-10T10:21:22.250Z,8.1
2024-03-10T10:22:27.208Z,8.2
2024-03-10T10:23:32.221Z,7.9
2024-03-10T10:24:37.213Z,8
2024-03-10T10:25:42.112Z,8.2
2024-03-10T10:26:46.993Z,8.5
2024-03-10T10:27:59.697Z,8.7
2024-03-10T10:29:04.676Z,9
2024-03-10T10:30:09.554Z,8.2
2024-03-10T10:31:14.499Z,8.5
2024-03-10T10:32:19.425Z,8.4
2024-03-10T10:33:26.098Z,8.6
2024-03-10T10:34:31.134Z,8
2024-03-10T10:35:36.336Z,8.3
2024-03-10T10:36:44.114Z,8.4
2024-03-10T10:37:49.204Z,8.8
2024-03-10T10:38:56.885Z,8.2
2024-03-10T10:40:01.943Z,9.1
2024-03-10T10:41:07.231Z,9.2
2024-03-10T10:42:12.832Z,8.2
2024-03-10T10:43:17.178Z,8.4
2024-03-10T10:44:22.208Z,8.4
2024-03-10T10:45:27.123Z,8.8
2024-03-10T10:46:35.017Z,8.5
2024-03-10T10:47:40.020Z,8.9
2024-03-10T10:48:44.973Z,8.3
2024-03-10T10:49:49.907Z,8.6
2024-03-10T10:50:54.842Z,8.8
2024-03-10T10:51:59.774Z,8.9
2024-03-10T10:53:04.958Z,9
2024-03-10T10:54:09.812Z,8.8
2024-03-10T10:55:14.691Z,7.9
2024-03-10T10:56:19.741Z,8.1
2024-03-10T10:57:24.894Z,8.1
2024-03-10T10:58:29.768Z,8.1
2024-03-10T10:59:34.731Z,7.8
2024-03-10T11:00:39.773Z,8.2
2024-03-10T11:01:46.813Z,8
2024-03-10T11:02:49.512Z,8.4
2024-03-10T11:03:54.454Z,7
2024-03-10T11:05:02.248Z,7.3
2024-03-10T11:06:07.446Z,6.6
2024-03-10T11:07:12.120Z,6.5
2024-03-10T11:08:17.266Z,6.6
2024-03-10T11:09:22.103Z,7.1
2024-03-10T11:10:30.148Z,6.7
2024-03-10T11:11:42.811Z,6.1
2024-03-10T11:12:47.647Z,6.5
2024-03-10T11:13:54.711Z,6.6
2024-03-10T11:14:57.663Z,5.7
2024-03-10T11:16:02.601Z,6.3
2024-03-10T11:17:15.276Z,6
2024-03-10T11:18:23.135Z,6.4
2024-03-10T11:19:30.798Z,4.3
2024-03-10T11:20:35.784Z,5.3
2024-03-10T11:21:40.679Z,5.5
2024-03-10T11:22:45.604Z,6.3
2024-03-10T11:23:55.468Z,6.8
2024-03-10T11:25:00.273Z,6.3
2024-03-10T11:26:08.740Z,6.8
2024-03-10T11:27:13.642Z,6.4
2024-03-10T11:28:21.390Z,6.4
2024-03-10T11:29:31.345Z,6.4
2024-03-10T11:30:36.164Z,6.2
2024-03-10T11:31:41.044Z,6.1
2024-03-10T11:32:46.113Z,6.1
2024-03-10T11:33:50.928Z,6.3
2024-03-10T11:34:56.026Z,6.2
2024-03-10T11:36:01.033Z,5.4
2024-03-10T11:37:06.175Z,5.4
2024-03-10T11:38:11.323Z,5.7
2024-03-10T11:39:15.901Z,6.6
2024-03-10T11:40:25.644Z,8.8
2024-03-10T11:41:30.449Z,10
2024-03-10T11:42:35.436Z,10.3
2024-03-10T11:43:40.429Z,9.9
2024-03-10T11:44:48.063Z,9.4
2024-03-10T11:45:53.105Z,10.1
2024-03-10T11:46:58.181Z,9.9
2024-03-10T11:48:03.280Z,9.8
2024-03-10T11:49:08.416Z,9.6
2024-03-10T11:50:13.374Z,9.1
2024-03-10T11:51:18.284Z,9.8
2024-03-10T11:52:23.127Z,9.6
2024-03-10T11:53:28.318Z,10.4
2024-03-10T11:54:33.048Z,8.6
2024-03-10T11:55:37.860Z,5.7
2024-03-10T11:56:42.768Z,6.1
2024-03-10T11:57:47.826Z,8
2024-03-10T11:58:59.012Z,8.4
2024-03-10T12:00:03.770Z,5.1
2024-03-10T12:01:08.949Z,3.5
2024-03-10T12:02:14.128Z,3.1
2024-03-10T12:03:19.021Z,3.5
2024-03-10T12:04:23.937Z,3.1
2024-03-10T12:05:28.854Z,2.4
2024-03-10T12:06:33.711Z,2.8
2024-03-10T12:07:38.653Z,3.4
2024-03-10T12:08:46.848Z,7.1
2024-03-10T12:09:51.797Z,8
2024-03-10T12:10:59.528Z,8.1
2024-03-10T12:12:04.383Z,8.5
2024-03-10T12:13:14.250Z,8.4
2024-03-10T12:14:22.055Z,8.4
2024-03-10T12:15:26.956Z,7.8
2024-03-10T12:16:31.848Z,8.7
2024-03-10T12:17:36.788Z,8.1
2024-03-10T12:18:41.694Z,8
2024-03-10T12:19:49.346Z,8.1
2024-03-10T12:20:54.267Z,8
2024-03-10T12:21:59.249Z,7.5
2024-03-10T12:23:04.259Z,7.2
2024-03-10T12:24:12.298Z,6.9
2024-03-10T12:25:17.411Z,6.8
2024-03-10T12:26:25.197Z,6.6
2024-03-10T12:27:30.070Z,6.2
2024-03-10T12:28:34.992Z,6.7
2024-03-10T12:29:40.045Z,6.3
2024-03-10T12:30:50.092Z,7.2
2024-03-10T12:31:56.045Z,6.7
2024-03-10T12:32:59.853Z,6.7
2024-03-10T12:34:04.897Z,6.4
2024-03-10T12:35:09.859Z,4.4
2024-03-10T12:36:14.761Z,4.6
2024-03-10T12:37:21.192Z,4.6
2024-03-10T12:38:27.568Z,4
2024-03-10T12:39:32.465Z,4.5
2024-03-10T12:40:37.613Z,3.9
2024-03-10T12:41:42.614Z,4.8
2024-03-10T12:42:47.525Z,3.4
2024-03-10T12:43:52.493Z,2.8
2024-03-10T12:44:57.527Z,3.2
2024-03-10T12:46:02.516Z,3
2024-03-10T12:47:07.770Z,2.8
2024-03-10T12:48:12.746Z,2.4
2024-03-10T12:49:17.687Z,2.5
2024-03-10T12:50:22.767Z,2.3
2024-03-10T12:51:27.641Z,2.2
2024-03-10T12:52:32.593Z,2.1
2024-03-10T12:53:37.435Z,2.6
2024-03-10T12:54:42.315Z,2.7
2024-03-10T12:55:47.385Z,2.9
2024-03-10T12:56:52.264Z,3
2024-03-10T12:57:57.211Z,2.9
2024-03-10T12:59:02.202Z,2.7
2024-03-10T13:00:07.185Z,2.2
2024-03-10T13:01:17.239Z,2.3
2024-03-10T13:02:22.165Z,2.1
2024-03-10T13:03:27.148Z,2.3
2024-03-10T13:04:32.219Z,2.2
2024-03-10T13:05:37.146Z,1.9
2024-03-10T13:06:41.998Z,2.4
2024-03-10T13:07:46.910Z,1.9
2024-03-10T13:08:51.893Z,2.2
2024-03-10T13:09:56.980Z,2.1
2024-03-10T13:11:02.067Z,2.3
2024-03-10T13:12:07.052Z,2.5
2024-03-10T13:13:12.060Z,2.4
2024-03-10T13:14:16.988Z,2.6
2024-03-10T13:15:22.076Z,2.6
2024-03-10T13:16:32.339Z,2.4
2024-03-10T13:17:37.615Z,2.4
2024-03-10T13:18:45.262Z,2.7
2024-03-10T13:19:50.125Z,2.6
2024-03-10T13:20:55.093Z,2.8
2024-03-10T13:22:00.037Z,2.6
2024-03-10T13:23:04.976Z,2.6
2024-03-10T13:24:09.863Z,2.7
2024-03-10T13:25:14.811Z,2.4
2024-03-10T13:26:19.692Z,2.6
2024-03-10T13:27:24.619Z,2.6
2024-03-10T13:28:29.509Z,2.8
2024-03-10T13:29:34.525Z,2.6
2024-03-10T13:30:39.533Z,2.5
2024-03-10T13:31:44.434Z,2.9
2024-03-10T13:32:49.650Z,2.6
2024-03-10T13:33:54.659Z,2.6
2024-03-10T13:34:59.592Z,2
2024-03-10T13:36:13.929Z,2.2
2024-03-10T13:37:15.076Z,2.3
2024-03-10T13:38:20.167Z,2.3
2024-03-10T13:39:24.994Z,2.3
2024-03-10T13:40:29.902Z,2.7
2024-03-10T13:41:35.207Z,2.4
2024-03-10T13:42:40.172Z,2.5
2024-03-10T13:43:48.133Z,2.6
2024-03-10T13:44:52.947Z,2.5
2024-03-10T13:45:58.074Z,2.4
2024-03-10T13:47:03.119Z,2.5
2024-03-10T13:48:08.135Z,2.6
2024-03-10T13:49:12.985Z,2.7
2024-03-10T13:50:17.920Z,2.8
2024-03-10T13:51:22.877Z,2.9
2024-03-10T13:52:30.334Z,2.9
2024-03-10T13:53:35.176Z,2.9
2024-03-10T13:54:40.004Z,2.9
2024-03-10T13:55:47.942Z,2.7
2024-03-10T13:56:52.817Z,3.2
2024-03-10T13:57:57.811Z,2.9
2024-03-10T13:59:02.607Z,2.9
2024-03-10T14:00:07.317Z,2.9
2024-03-10T14:01:17.126Z,3.3
2024-03-10T14:02:21.893Z,2.7
2024-03-10T14:03:29.456Z,2.9
2024-03-10T14:04:34.319Z,3
2024-03-10T14:05:39.123Z,3.3
2024-03-10T14:06:43.817Z,3.3
2024-03-10T14:07:48.746Z,3.3
2024-03-10T14:08:53.434Z,3.5
2024-03-10T14:09:58.281Z,3.5
2024-03-10T14:11:03.070Z,3.7
2024-03-10T14:12:07.967Z,4
2024-03-10T14:13:12.669Z,4.2
2024-03-10T14:14:17.462Z,4.5
2024-03-10T14:15:22.294Z,3.2
2024-03-10T14:16:29.720Z,3.9
2024-03-10T14:17:34.575Z,3.8
2024-03-10T14:18:42.228Z,3.5
2024-03-10T14:19:46.965Z,3.8
2024-03-10T14:20:51.767Z,3.6
2024-03-10T14:21:59.443Z,4
2024-03-10T14:23:04.212Z,3.9
2024-03-10T14:24:09.040Z,4.5
2024-03-10T14:25:14.282Z,4.1
2024-03-10T14:26:18.582Z,5.1
2024-03-10T14:27:23.416Z,5.9
2024-03-10T14:28:28.116Z,4.8
2024-03-10T14:29:32.986Z,5.8
2024-03-10T14:30:37.654Z,6.2
2024-03-10T14:31:42.367Z,7.2
2024-03-10T14:32:47.922Z,5.8
2024-03-10T14:33:51.937Z,5.8
2024-03-10T14:34:56.674Z,4.1
2024-03-10T14:36:01.504Z,4
2024-03-10T14:37:06.302Z,3.6
2024-03-10T14:38:11.085Z,3.8
2024-03-10T14:39:15.813Z,3.2
2024-03-10T14:40:20.555Z,3.2
2024-03-10T14:41:25.332Z,2.7
2024-03-10T14:42:30.241Z,3.1
2024-03-10T14:43:35.256Z,3
2024-03-10T14:44:40.120Z,3
2024-03-10T14:45:44.881Z,2.9
2024-03-10T14:46:49.779Z,3.3
2024-03-10T14:47:54.672Z,2.6
2024-03-10T14:48:59.463Z,2.9
2024-03-10T14:50:04.257Z,2.6